Latest Weather Observations for Mount Crawford

IDS60901

Issued at 11:21 am CST Thursday 30 July 2015 (issued every 10 minutes, with the page automatically refreshed every 10 minutes)

About weather observations | Map of Adelaide area stations | Latest observations for Adelaide area | Other Formats
Station Details ID: 023878 Name: MT CRAWFORD AWS Lat: -34.73 Lon: 138.93 Height: 525.0 m
Data from the previous 72 hours. | See also: Recent months at Mount Crawford
Date/Time
CST
Tmp

°C
App
Tmp
°C
Dew
Point
°C
Rel
Hum
%
Delta-T

°C
Wind Press
QNH
hPa
Press
MSL
hPa
Rain
since
9 am
mm
Dir
 
Spd
km/h
Gust
km/h
Spd
kts
Gust
kts
30/11:00am 10.4 0.8 1.2 53 3.9 NW 41 67 22 36 1017.9 1018.4 0.0
30/10:30am 10.2 2.1 1.3 54 3.8 NW 33 57 18 31 1017.5 1017.9 0.0
30/10:00am 9.6 1.1 0.8 54 3.7 NW 35 56 19 30 1017.9 1018.4 0.0
30/09:30am 9.5 1.0 0.7 54 3.7 NW 35 57 19 31 1018.0 1018.5 0.0
30/09:01am 8.9 1.2 -0.1 53 3.7 NW 30 50 16 27 1018.3 1018.8 0.0
30/09:00am 8.8 1.2 0.3 55 3.5 NW 30 44 16 24 1018.4 1018.9 0.2
30/08:30am 8.2 0.5 0.0 56 3.3 NNW 30 50 16 27 1018.5 1019.0 0.2
30/08:03am 7.7 0.4 0.0 58 3.1 NW 28 46 15 25 1018.8 1019.3 0.2
30/08:00am 7.6 0.3 -0.1 58 3.1 NW 28 39 15 21 1018.8 1019.3 0.2
30/07:30am 7.3 -0.8 -0.2 59 3.0 NNW 32 46 17 25 1018.4 1018.9 0.2
30/07:00am 7.1 -0.2 0.1 61 2.8 NNW 28 41 15 22 1018.4 1018.9 0.2
30/06:30am 6.8 -0.5 0.3 63 2.6 NNW 28 41 15 22 1018.3 1018.8 0.2
30/06:00am 7.0 -1.0 0.2 62 2.7 NNW 32 50 17 27 1018.5 1019.0 0.2
30/05:52am 7.1 -0.9 0.3 62 2.8 NNW 32 50 17 27 1018.6 1019.1 0.2
30/05:30am 7.0 0.5 0.2 62 2.7 NW 24 33 13 18 1019.7 1020.2 0.2
30/05:00am 7.6 1.4 -0.6 56 3.3 NW 22 33 12 18 1019.9 1020.4 0.2
30/04:30am 7.7 1.4 -1.0 54 3.4 NW 22 33 12 18 1020.2 1020.7 0.2
30/04:00am 7.8 1.2 -0.7 55 3.4 NW 24 39 13 21 1020.3 1020.8 0.2
30/03:30am 7.9 1.2 -1.1 53 3.5 NW 24 37 13 20 1020.5 1021.0 0.2
30/03:00am 7.7 1.0 -1.0 54 3.4 NW 24 37 13 20 1021.0 1021.6 0.2
30/02:30am 7.9 1.2 -1.3 52 3.6 NW 24 39 13 21 1021.5 1022.0 0.2
30/02:00am 7.9 1.2 -1.3 52 3.6 WNW 24 37 13 20 1021.8 1022.3 0.2
30/01:30am 7.8 1.5 -0.7 55 3.4 WNW 22 32 12 17 1022.0 1022.5 0.2
30/01:00am 8.0 1.4 -0.7 54 3.5 WNW 24 37 13 20 1022.1 1022.6 0.2
30/12:30am 7.7 1.6 0.2 59 3.0 NW 22 35 12 19 1022.3 1022.8 0.2
30/12:00am 7.5 1.0 0.3 60 2.9 NW 24 33 13 18 1022.6 1023.2 0.2
 
Date/Time
CST
Tmp

°C
App
Tmp
°C
Dew
Point
°C
Rel
Hum
%
Delta-T

°C
Wind Press
QNH
hPa
Press
MSL
hPa
Rain
since
9 am
mm
Dir
 
Spd
km/h
Gust
km/h
Spd
kts
Gust
kts
29/11:30pm 7.5 1.1 0.7 62 2.8 NW 24 39 13 21 1022.8 1023.4 0.2
29/11:00pm 7.7 0.8 0.4 60 3.0 NW 26 35 14 19 1022.9 1023.5 0.2
29/10:30pm 7.5 0.4 1.4 65 2.5 NNW 28 39 15 21 1023.2 1023.7 0.2
29/10:00pm 7.4 0.4 2.1 69 2.3 NNW 28 37 15 20 1023.5 1024.0 0.2
29/09:30pm 7.5 0.5 2.2 69 2.2 NNW 28 37 15 20 1023.7 1024.2 0.2
29/09:00pm 7.8 0.9 2.3 68 2.3 NNW 28 37 15 20 1024.2 1024.8 0.2
29/08:30pm 8.1 0.8 2.6 68 2.4 N 30 41 16 22 1024.2 1024.8 0.2
29/08:00pm 8.4 1.2 3.1 69 2.3 NNW 30 44 16 24 1024.3 1024.9 0.2
29/07:30pm 8.4 1.6 3.1 69 2.3 N 28 41 15 22 1024.2 1024.8 0.2
29/07:00pm 8.1 1.3 3.0 70 2.2 N 28 35 15 19 1024.5 1025.1 0.2
29/06:30pm 8.0 1.5 2.9 70 2.2 N 26 32 14 17 1024.4 1025.0 0.2
29/06:00pm 7.6 2.3 3.1 73 2.0 N 20 30 11 16 1024.3 1024.9 0.2
29/05:30pm 7.7 2.7 3.4 74 1.9 N 19 24 10 13 1024.5 1025.1 0.2
29/05:00pm 7.9 3.3 3.8 75 1.8 N 17 22 9 12 1024.6 1025.2 0.2
29/04:30pm 8.3 3.1 3.8 73 2.0 N 20 30 11 16 1024.7 1025.3 0.2
29/04:00pm 9.1 3.4 3.1 66 2.7 NW 22 39 12 21 1025.2 1025.7 0.2
29/03:30pm 9.1 4.0 2.9 65 2.7 NW 19 32 10 17 1025.2 1025.7 0.2
29/03:00pm 9.3 3.2 2.9 64 2.8 NW 24 35 13 19 1025.3 1025.8 0.2
29/02:30pm 8.8 3.6 3.4 69 2.4 NNW 20 28 11 15 1025.5 1026.0 0.2
29/02:00pm 8.2 2.2 3.5 72 2.1 NW 24 39 13 21 1026.3 1026.9 0.2
29/01:30pm 7.6 1.6 3.5 75 1.8 NW 24 33 13 18 1026.4 1027.0 0.2
29/01:00pm 7.4 1.7 2.9 73 2.0 NW 22 37 12 20 1027.0 1027.6 0.2
29/12:30pm 7.7 2.4 3.2 73 2.0 NNW 20 32 11 17 1027.8 1028.4 0.2
29/12:00pm 7.6 2.5 2.9 72 2.0 NNW 19 28 10 15 1028.3 1028.9 0.2
29/11:30am 7.8 2.6 3.5 74 1.9 NNW 20 28 11 15 1029.0 1029.7 0.0
29/11:00am 7.2 1.6 3.3 76 1.7 NW 22 30 12 16 1029.8 1030.4 0.0
29/10:30am 7.3 2.1 2.6 72 2.0 NNW 19 26 10 14 1029.7 1030.3 0.0
29/10:00am 6.8 1.9 2.3 73 1.9 NNW 17 30 9 16 1030.1 1030.7 0.0
29/09:30am 6.4 0.9 1.9 73 1.9 NNW 20 33 11 18 1030.2 1030.8 0.0
29/09:00am 6.2 -0.5 1.3 71 2.0 N 26 37 14 20 1029.6 1030.2 0.0
29/08:30am 5.8 -1.3 1.5 74 1.8 N 28 37 15 20 1030.4 1031.0 0.0
29/08:00am 5.9 -0.4 1.4 73 1.9 N 24 35 13 19 1030.7 1031.4 0.0
29/07:30am 6.5 -0.2 1.2 69 2.2 N 26 41 14 22 1030.0 1030.6 0.0
29/07:00am 6.5 0.5 1.2 69 2.2 N 22 33 12 18 1029.4 1030.0 0.0
29/06:30am 6.3 0.4 1.4 71 2.0 NNE 22 30 12 16 1029.3 1029.9 0.0
29/06:00am 6.6 0.3 1.5 70 2.1 N 24 37 13 20 1030.0 1030.6 0.0
29/05:30am 6.4 0.1 1.5 71 2.0 N 24 33 13 18 1029.9 1030.5 0.0
29/05:00am 6.3 0.0 1.6 72 2.0 N 24 35 13 19 1029.5 1030.1 0.0
29/04:30am 6.1 0.6 1.8 74 1.8 N 20 28 11 15 1029.9 1030.5 0.0
29/04:00am 6.2 -0.4 1.9 74 1.8 NNE 26 33 14 18 1029.5 1030.1 0.0
29/03:30am 6.0 0.5 1.7 74 1.8 NNE 20 26 11 14 1029.9 1030.5 0.0
29/03:00am 5.9 -0.3 2.0 76 1.6 NNE 24 30 13 16 1029.8 1030.4 0.0
29/02:30am 5.7 0.3 2.2 78 1.5 NNE 20 26 11 14 1030.3 1030.9 0.0
29/02:00am 6.1 0.7 2.2 76 1.6 NNE 20 24 11 13 1030.5 1031.1 0.0
29/01:30am 6.3 0.5 2.2 75 1.7 NNE 22 28 12 15 1031.0 1031.7 0.0
29/01:00am 5.8 0.0 2.1 77 1.5 NNE 22 28 12 15 1030.9 1031.6 0.0
29/12:30am 6.0 0.6 2.3 77 1.5 NNE 20 22 11 12 1031.4 1032.0 0.0
29/12:00am 6.2 1.0 2.7 78 1.5 NE 19 20 10 11 1031.6 1032.2 0.0
 
Date/Time
CST
Tmp

°C
App
Tmp
°C
Dew
Point
°C
Rel
Hum
%
Delta-T

°C
Wind Press
QNH
hPa
Press
MSL
hPa
Rain
since
9 am
mm
Dir
 
Spd
km/h
Gust
km/h
Spd
kts
Gust
kts
28/11:30pm 6.2 1.6 3.5 83 1.2 NNE 17 20 9 11 1032.1 1032.7 0.0
28/11:00pm 6.2 1.8 5.0 92 0.5 NE 17 22 9 12 1031.9 1032.5 0.0
28/10:30pm 6.5 3.2 6.2 98 0.1 ENE 13 17 7 9 1032.6 1033.3 0.0
28/10:00pm 6.6 3.3 6.3 98 0.1 ENE 13 17 7 9 1033.0 1033.7 0.0
28/09:30pm 6.6 3.3 6.2 97 0.2 ENE 13 17 7 9 1032.9 1033.6 0.0
28/09:00pm 6.9 3.6 6.2 95 0.3 E 13 15 7 8 1033.4 1034.0 0.0
28/08:30pm 6.9 3.5 5.8 93 0.5 ESE 13 15 7 8 1033.4 1034.0 0.0
28/08:00pm 7.0 3.6 5.8 92 0.6 ESE 13 17 7 9 1033.4 1034.0 0.0
28/07:30pm 7.1 4.4 5.4 89 0.8 SE 9 13 5 7 1033.4 1034.0 0.0
28/07:00pm 7.1 4.9 5.1 87 0.9 ESE 6 11 3 6 1033.0 1033.7 0.0
28/06:30pm 7.5 5.2 4.6 82 1.3 S 6 6 3 3 1033.4 1034.0 0.0
28/06:00pm 7.5 5.3 5.3 86 1.0 S 6 7 3 4 1033.4 1034.0 0.0
28/05:30pm 7.7 5.2 4.8 82 1.3 WSW 7 9 4 5 1033.7 1034.3 0.0
28/05:00pm 8.0 5.8 5.5 84 1.2 WSW 6 7 3 4 1033.3 1033.9 0.0
28/04:30pm 8.3 5.5 5.1 80 1.5 W 9 11 5 6 1033.5 1034.1 0.0
28/04:00pm 9.3 6.4 4.9 74 2.0 W 9 15 5 8 1033.3 1033.9 0.0
28/03:30pm 8.4 6.1 5.7 83 1.2 WNW 7 11 4 6 1033.3 1033.9 0.0
28/03:00pm 8.0 5.6 5.3 83 1.2 W 7 13 4 7 1033.4 1034.0 0.0
28/02:30pm 9.1 6.4 5.7 79 1.6 NNW 9 13 5 7 1033.4 1034.0 0.0
28/02:00pm 8.7 6.7 8.7 100 0.0 W 9 15 5 8 1033.8 1034.4 0.0
28/01:30pm 8.1 5.6 8.1 100 0.0 W 11 17 6 9 1034.2 1034.9 0.0
28/01:00pm 6.8 4.4 6.8 100 0.0 WNW 9 15 5 8 1034.7 1035.4 0.0
28/12:30pm 6.0 3.4 6.0 100 0.0 WSW 9 13 5 7 1035.5 1036.2 0.0
28/12:00pm 6.1 3.1 6.1 100 0.0 NW 11 15 6 8 1035.8 1036.5 0.0
28/11:30am 6.0 3.4 6.0 100 0.0 W 9 13 5 7 1036.1 1036.8 0.0
28/11:00am 5.6 2.9 5.6 100 0.0 WSW 9 13 5 7 1036.4 1037.1 0.0
28/10:30am 6.0 4.3 6.0 100 0.0 NNW 4 9 2 5 1036.3 1037.0 0.0
28/10:00am 5.4 3.0 5.4 100 0.0 WNW 7 11 4 6 1036.4 1037.1 0.0
28/09:30am 5.2 2.4 5.2 100 0.0 NNE 9 11 5 6 1036.1 1036.8 0.0
28/09:00am 4.8 1.9 4.8 100 0.0 NNE 9 11 5 6 1036.0 1036.7 0.4
28/08:30am 4.7 1.4 4.7 100 0.0 W 11 15 6 8 1036.2 1036.9 0.4
28/08:00am 4.7 1.4 4.7 100 0.0 W 11 15 6 8 1036.1 1036.8 0.4
28/07:30am 4.6 1.3 4.6 100 0.0 W 11 13 6 7 1036.2 1036.9 0.4
28/07:00am 4.7 1.8 4.7 100 0.0 W 9 11 5 6 1035.8 1036.5 0.4
28/06:30am 4.9 2.0 4.9 100 0.0 WSW 9 13 5 7 1035.8 1036.5 0.4
28/06:00am 4.7 1.8 4.7 100 0.0 WSW 9 13 5 7 1035.5 1036.2 0.4
28/05:30am 4.9 1.3 4.9 100 0.0 WSW 13 17 7 9 1035.0 1035.7 0.2
28/05:00am 4.8 1.2 4.8 100 0.0 W 13 17 7 9 1034.7 1035.4 0.2
28/04:30am 4.6 1.7 4.6 100 0.0 WNW 9 13 5 7 1034.5 1035.2 0.2
28/04:00am 4.6 1.7 4.6 100 0.0 WNW 9 11 5 6 1034.5 1035.2 0.2
28/03:30am 4.6 1.7 4.6 100 0.0 NW 9 11 5 6 1034.5 1035.2 0.2
28/03:00am 4.8 1.9 4.8 100 0.0 W 9 11 5 6 1034.7 1035.4 0.2
28/02:30am 4.9 2.0 4.9 100 0.0 NW 9 13 5 7 1034.8 1035.5 0.2
28/02:00am 4.8 1.9 4.8 100 0.0 WNW 9 13 5 7 1034.7 1035.4 0.2
28/01:30am 4.8 1.9 4.8 100 0.0 NW 9 15 5 8 1034.6 1035.3 0.2
28/01:00am 4.9 2.0 4.9 100 0.0 WNW 9 13 5 7 1034.6 1035.3 0.2
28/12:30am 4.9 2.0 4.9 100 0.0 W 9 13 5 7 1034.5 1035.2 0.2
28/12:00am 5.0 2.2 5.0 100 0.0 NW 9 11 5 6 1034.5 1035.2 0.2
 
Date/Time
CST
Tmp

°C
App
Tmp
°C
Dew
Point
°C
Rel
Hum
%
Delta-T

°C
Wind Press
QNH
hPa
Press
MSL
hPa
Rain
since
9 am
mm
Dir
 
Spd
km/h
Gust
km/h
Spd
kts
Gust
kts
27/11:30pm 5.3 2.5 5.3 100 0.0 WNW 9 15 5 8 1034.6 1035.3 0.2
27/11:00pm 5.5 2.8 5.5 100 0.0 WSW 9 13 5 7 1034.6 1035.3 0.2
27/10:30pm 5.5 2.4 5.5 100 0.0 W 11 15 6 8 1034.5 1035.2 0.2
27/10:00pm 5.5 3.1 5.4 99 0.0 W 7 11 4 6 1034.6 1035.3 0.0
27/09:30pm 5.2 2.4 5.1 99 0.0 WNW 9 13 5 7 1034.6 1035.3 0.0
27/09:00pm 4.9 2.0 4.8 99 0.0 W 9 13 5 7 1034.5 1035.2 0.0
27/08:30pm 5.0 2.1 4.7 98 0.1 W 9 11 5 6 1034.4 1035.1 0.0
27/08:00pm 5.1 1.9 5.0 99 0.0 SW 11 13 6 7 1034.4 1035.1 0.0
27/07:30pm 5.0 1.8 4.9 99 0.0 WSW 11 13 6 7 1034.4 1035.1 0.0
27/07:00pm 5.1 1.8 4.7 97 0.2 WSW 11 15 6 8 1034.2 1034.9 0.0
27/06:30pm 5.2 1.5 4.3 94 0.4 WSW 13 17 7 9 1034.0 1034.7 0.0
27/06:00pm 5.5 2.1 4.2 91 0.6 W 11 17 6 9 1033.6 1034.2 0.0
27/05:30pm 6.5 2.8 4.7 88 0.8 W 13 19 7 10 1033.4 1034.0 0.0
27/05:00pm 7.4 3.0 4.9 84 1.1 W 17 26 9 14 1033.3 1033.9 0.0
27/04:30pm 8.2 3.5 5.0 80 1.5 WSW 19 28 10 15 1033.0 1033.7 0.0
27/04:00pm 6.8 3.4 5.9 94 0.4 WSW 13 17 7 9 1033.0 1033.7 0.0
27/03:30pm 7.1 3.3 6.0 93 0.5 W 15 24 8 13 1032.9 1033.6 0.0
27/03:00pm 7.4 3.9 5.4 87 0.9 W 13 19 7 10 1032.7 1033.4 0.0
27/02:30pm 6.4 1.6 5.5 94 0.4 WSW 20 28 11 15 1032.7 1033.4 0.0
27/02:00pm 7.2 2.5 5.2 87 0.9 WSW 19 28 10 15 1032.3 1033.0 0.0
27/01:30pm 7.3 3.6 6.1 92 0.6 WNW 15 20 8 11 1032.5 1033.2 0.0
27/01:00pm 7.2 3.6 6.8 97 0.2 W 15 22 8 12 1032.8 1033.5 0.0
27/12:30pm 6.6 4.1 6.5 99 0.0 W 9 13 5 7 1033.0 1033.7 0.0
27/12:00pm 6.4 3.1 6.4 100 0.0 W 13 20 7 11 1033.3 1033.9 0.0
27/11:30am 5.6 2.9 5.6 100 0.0 NW 9 15 5 8 1033.7 1034.3 0.0

Latest Capital City Observations: Canberra | Sydney | Melbourne | Brisbane | Adelaide | Perth | Hobart | Darwin

Other Formats:

Comma delimited format used in spreadsheet applications
http://www.bom.gov.au/fwo/IDS60901/IDS60901.94678.axf

JavaScript Object Notation format (JSON) in row-major order
http://www.bom.gov.au/fwo/IDS60901/IDS60901.94678.json